Meteorología y climatología de Navarra
Datos de la estación - Meteo Navarra

Estación de Arangoiti GN

Altitud 1353 m.


Datos desde el 16/09/2020 hasta el 17/09/2020 en horario solar
Los datos son PROVISIONALES

Anterior Página 1 de 1 Siguiente Descargar: Formato para Excel 2000 o superior   Formato csv   Formato para OpenOffice Calc
Fecha Temperatura Humedad relativa Radiación global Insolación Precipitación Vel. viento 10 m Vel. viento 10 m Dir. viento 10 m
ºC % W/m² s l/m² m/s km/h º
16/09/2020 0:00 18.0 58 0.0 0 0.0 6.7 24.1 155
16/09/2020 0:10 17.8 58 0.0 0 0.0 6.8 24.3 153
16/09/2020 0:20 17.8 59 0.0 0 0.0 6.6 23.7 153
16/09/2020 0:30 17.8 59 0.0 0 0.0 6.6 23.6 153
16/09/2020 0:40 17.8 59 0.0 0 0.0 6.6 23.9 153
16/09/2020 0:50 17.7 59 0.0 0 0.0 6.5 23.5 154
16/09/2020 1:00 17.6 59 0.0 0 0.0 6.6 23.9 153
16/09/2020 1:10 17.6 60 0.0 0 0.0 6.6 23.6 153
16/09/2020 1:20 17.6 60 0.0 0 0.0 6.3 22.7 151
16/09/2020 1:30 17.6 60 0.0 0 0.0 6.1 21.8 152
16/09/2020 1:40 17.5 60 0.0 0 0.0 5.6 20.1 151
16/09/2020 1:50 17.5 61 0.0 0 0.0 5.0 18.0 153
16/09/2020 2:00 17.6 61 0.0 0 0.0 5.2 18.6 152
16/09/2020 2:10 17.6 61 0.0 0 0.0 5.3 18.9 149
16/09/2020 2:20 17.6 61 0.0 0 0.0 5.3 19.0 148
16/09/2020 2:30 17.9 61 0.0 0 0.0 5.3 18.9 148
16/09/2020 2:40 17.6 61 0.0 0 0.0 5.1 18.4 148
16/09/2020 2:50 17.8 61 0.0 0 0.0 4.8 17.4 149
16/09/2020 3:00 17.9 62 0.0 0 0.0 4.8 17.4 149
16/09/2020 3:10 17.8 62 0.0 0 0.0 5.1 18.3 148
16/09/2020 3:20 17.7 61 0.0 0 0.0 5.2 18.8 146
16/09/2020 3:30 17.6 59 0.0 0 0.0 5.3 19.0 146
16/09/2020 3:40 17.4 59 0.0 0 0.0 5.2 18.7 147
16/09/2020 3:50 17.6 59 0.0 0 0.0 5.7 20.6 147
16/09/2020 4:00 17.4 58 0.0 0 0.0 5.6 20.0 147
16/09/2020 4:10 17.6 59 0.0 0 0.0 5.7 20.4 147
16/09/2020 4:20 17.6 61 0.0 0 0.0 5.5 19.8 148
16/09/2020 4:30 17.4 62 0.0 0 0.0 5.1 18.5 148
16/09/2020 4:40 17.6 62 0.0 0 0.0 5.2 18.6 147
16/09/2020 4:50 17.6 60 0.0 0 0.0 5.0 18.1 148
16/09/2020 5:00 17.7 60 0.0 0 0.0 4.9 17.6 149
16/09/2020 5:10 17.4 60 0.0 0 0.0 4.9 17.7 149
16/09/2020 5:20 17.5 62 0.0 0 0.0 5.1 18.5 151
16/09/2020 5:30 17.2 62 0.0 0 0.0 4.9 17.7 149
16/09/2020 5:40 17.2 61 0.0 0 0.0 4.9 17.8 149
16/09/2020 5:50 17.1 61 11.8 0 0.0 4.8 17.3 148
16/09/2020 6:00 17.3 59 24.8 60 0.0 4.7 16.8 147
16/09/2020 6:10 17.4 58 40.4 600 0.0 4.9 17.6 146
16/09/2020 6:20 17.7 57 63.5 600 0.0 5.2 18.5 147
16/09/2020 6:30 18.1 57 85.4 600 0.0 4.6 16.5 149
16/09/2020 6:40 18.1 56 107.6 600 0.0 4.5 16.3 148
16/09/2020 6:50 18.7 55 132.5 600 0.0 4.7 17.0 148
16/09/2020 7:00 19.0 55 161.1 600 0.0 4.6 16.5 149
16/09/2020 7:10 19.4 54 187.2 600 0.0 4.4 15.9 151
16/09/2020 7:20 19.4 53 218.2 600 0.0 4.3 15.5 150
16/09/2020 7:30 19.7 53 250.4 600 0.0 4.2 15.2 149
16/09/2020 7:40 19.9 52 278.9 600 0.0 4.1 14.8 149
16/09/2020 7:50 20.2 51 320.3 600 0.0 4.3 15.4 148
16/09/2020 8:00 20.0 51 352.8 600 0.0 4.5 16.1 150
16/09/2020 8:10 20.2 51 385.5 600 0.0 4.6 16.4 151
16/09/2020 8:20 20.8 49 389.2 600 0.0 4.6 16.6 152
16/09/2020 8:30 21.4 49 449.1 600 0.0 4.4 15.9 151
16/09/2020 8:40 22.1 46 480.7 600 0.0 4.5 16.3 156
16/09/2020 8:50 21.6 47 505.8 600 0.0 4.4 15.8 155
16/09/2020 9:00 22.3 45 521.9 600 0.0 4.7 16.7 155
16/09/2020 9:10 22.7 46 555.5 600 0.0 4.5 16.2 160
16/09/2020 9:20 22.6 45 574.2 600 0.0 4.9 17.5 156
16/09/2020 9:30 23.0 44 400.3 348 0.0 4.5 16.2 158
16/09/2020 9:40 22.7 45 534.0 484 0.0 4.3 15.5 163
16/09/2020 9:50 22.9 45 656.7 600 0.0 4.6 16.6 161
16/09/2020 10:00 22.8 46 678.1 600 0.0 3.9 14.1 164
16/09/2020 10:10 23.9 43 691.7 600 0.0 4.2 15.2 161
16/09/2020 10:20 23.2 45 720.6 600 0.0 4.5 16.3 162
16/09/2020 10:30 23.8 42 734.0 600 0.0 3.9 13.9 158
16/09/2020 10:40 23.0 43 731.1 600 0.0 4.0 14.5 183
16/09/2020 10:50 24.4 40 753.1 600 0.0 4.6 16.5 159
16/09/2020 11:00 24.6 39 765.9 600 0.0 3.9 14.0 158
16/09/2020 11:10 25.3 39 776.4 600 0.0 3.9 13.9 166
16/09/2020 11:20 25.0 38 783.2 600 0.0 4.2 15.0 171
16/09/2020 11:30 25.1 38 788.8 600 0.0 3.9 14.0 168
16/09/2020 11:40 24.7 38 791.3 600 0.0 4.7 16.8 188
16/09/2020 11:50 25.0 37 793.1 600 0.0 4.2 15.0 182
16/09/2020 12:00 26.0 37 796.0 600 0.0 3.3 11.9 183
16/09/2020 12:10 25.3 37 797.7 600 0.0 3.8 13.5 198
16/09/2020 12:20 24.2 39 792.5 600 0.0 3.5 12.7 173
16/09/2020 12:30 25.8 37 784.5 600 0.0 3.6 12.9 197
16/09/2020 12:40 25.1 37 778.6 600 0.0 4.9 17.8 209
16/09/2020 12:50 25.7 36 763.4 600 0.0 5.1 18.2 187
16/09/2020 13:00 25.9 36 736.3 600 0.0 5.4 19.5 173
16/09/2020 13:10 24.7 39 725.7 600 0.0 4.7 17.0 180
16/09/2020 13:20 25.4 37 712.4 600 0.0 4.7 17.0 188
16/09/2020 13:30 25.8 37 704.0 600 0.0 3.4 12.1 177
16/09/2020 13:40 24.7 39 689.3 600 0.0 4.6 16.7 209
16/09/2020 13:50 25.7 37 671.1 600 0.0 4.8 17.4 178
16/09/2020 14:00 25.7 36 658.8 600 0.0 4.4 15.9 178
16/09/2020 14:10 25.5 36 642.9 600 0.0 4.0 14.3 182
16/09/2020 14:20 25.8 34 617.9 600 0.0 3.7 13.2 176
16/09/2020 14:30 25.2 35 575.9 600 0.0 4.1 14.7 209
16/09/2020 14:40 25.4 34 581.8 600 0.0 3.2 11.4 191
16/09/2020 14:50 24.7 34 542.8 600 0.0 4.7 16.9 207
16/09/2020 15:00 24.9 34 498.8 600 0.0 3.2 11.6 190
16/09/2020 15:10 24.9 34 507.2 600 0.0 2.7 9.8 169
16/09/2020 15:20 24.9 33 340.1 378 0.0 3.0 10.7 179
16/09/2020 15:30 23.4 35 199.2 0 0.0 1.4 5.1 191
16/09/2020 15:40 24.2 34 232.2 196 0.0 2.1 7.7 198
16/09/2020 15:50 24.2 32 253.8 424 0.0 2.4 8.6 206
16/09/2020 16:00 24.1 32 208.3 148 0.0 1.7 6.3 264
16/09/2020 16:10 23.6 32 166.6 0 0.0 1.0 3.6 224
16/09/2020 16:20 23.9 31 186.2 422 0.0 1.0 3.7 268
16/09/2020 16:30 23.6 32 184.3 600 0.0 0.6 2.2 261
16/09/2020 16:40 23.8 31 223.9 600 0.0 0.7 2.4 237
16/09/2020 16:50 24.2 31 225.1 600 0.0 0.8 2.8 240
16/09/2020 17:00 23.6 30 176.7 600 0.0 0.6 2.2 242
16/09/2020 17:10 22.9 32 126.5 600 0.0 1.2 4.1 318
16/09/2020 17:20 22.5 33 88.5 430 0.0 1.6 5.7 337
16/09/2020 17:30 22.4 34 68.4 318 0.0 1.8 6.4 351
16/09/2020 17:40 21.0 48 43.9 0 0.0 3.4 12.3 32
16/09/2020 17:50 20.8 50 31.4 6 0.0 4.6 16.5 47
16/09/2020 18:00 20.6 50 24.2 0 0.0 4.9 17.5 62
16/09/2020 18:10 20.2 53 14.6 0 0.0 6.1 21.9 54
16/09/2020 18:20 20.2 53 0.0 0 0.0 6.1 22.0 52
16/09/2020 18:30 20.0 54 0.0 0 0.0 6.1 22.0 58
16/09/2020 18:40 20.0 55 0.0 0 0.0 6.1 22.1 70
16/09/2020 18:50 19.9 55 0.0 0 0.0 4.9 17.7 66
16/09/2020 19:00 20.2 55 0.0 0 0.0 5.3 19.2 71
16/09/2020 19:10 20.0 55 0.0 0 0.0 6.3 22.5 74
16/09/2020 19:20 20.2 51 0.0 0 0.0 4.9 17.8 86
16/09/2020 19:30 20.6 49 0.0 0 0.0 4.1 14.6 100
16/09/2020 19:40 20.7 43 0.0 0 0.0 3.1 11.0 136
16/09/2020 19:50 20.8 43 0.0 0 0.0 2.6 9.2 152
16/09/2020 20:00 20.4 45 0.0 0 0.0 2.7 9.8 148
16/09/2020 20:10 20.5 48 0.0 0 0.0 2.7 9.8 145
16/09/2020 20:20 20.4 47 0.0 0 0.0 3.4 12.3 154
16/09/2020 20:30 20.1 51 0.0 0 0.0 3.4 12.2 150
16/09/2020 20:40 20.2 52 0.0 0 0.0 3.6 13.0 146
16/09/2020 20:50 20.2 54 0.0 0 0.0 4.1 14.7 147
16/09/2020 21:00 19.9 54 0.0 0 0.0 4.3 15.3 151
16/09/2020 21:10 19.7 55 0.0 0 0.0 4.5 16.1 153
16/09/2020 21:20 19.7 55 0.0 0 0.0 4.5 16.2 154
16/09/2020 21:30 19.7 55 0.0 0 0.0 4.4 15.9 156
16/09/2020 21:40 19.5 55 0.0 0 0.0 4.5 16.3 154
16/09/2020 21:50 19.5 55 0.0 0 0.0 5.1 18.2 151
16/09/2020 22:00 19.2 55 0.0 0 0.0 5.2 18.8 153
16/09/2020 22:10 19.1 56 0.0 0 0.0 5.7 20.5 155
16/09/2020 22:20 19.2 56 0.0 0 0.0 6.7 24.0 153
16/09/2020 22:30 19.1 56 0.0 0 0.0 6.3 22.6 152
16/09/2020 22:40 19.1 55 0.0 0 0.0 6.6 23.8 153
16/09/2020 22:50 19.1 55 0.0 0 0.0 7.4 26.6 152
16/09/2020 23:00 18.9 55 0.0 0 0.0 8.2 29.4 149
16/09/2020 23:10 18.9 53 0.0 0 0.0 8.7 31.4 152
16/09/2020 23:20 18.9 53 0.0 0 0.0 8.9 32.1 152
16/09/2020 23:30 18.9 54 0.0 0 0.0 9.3 33.6 151
16/09/2020 23:40 18.6 55 0.0 0 0.0 10.0 36.1 153
16/09/2020 23:50 18.4 56 0.0 0 0.0 10.4 37.3 153
Anterior Página 1 de 1 Siguiente
Los datos de precipitación registrados en estaciones que están en cumbres son inferiores a lo real, como consecuencia del efecto del viento y de la nieve.


NOTA: Tipo de datos según el color:
   - Valores diarios o 10 minutos correctos
   - Valores diarios calculados a partir de un número de datos 10 minutos menor que 144 y mayor que 120, o de un número de datos semihorarios menor que 48 y mayor que 40 (caso de las estaciones de INTIA y del Ministerio)
   - Valores diez minutos estimados


Contacto        Enlaces        Aviso legal